This is the latest recevied weather packets stored in our database for station/object YO6SAY-10. If no packets are shown the sender has not sent any weather packets the latest 10 day(s).
| Time | Temp. | Humidity | Pressure | Rain* | Wind** | Luminosity | Snow |
|---|---|---|---|---|---|---|---|
| 1777585462 | 8.89° C | 54% | 957.7 hPa | - | - | - | - |
| 1777584562 | 8.89° C | 54% | 957.6 hPa | - | - | - | - |
| 1777583661 | 8.89° C | 54% | 957.5 hPa | - | - | - | - |
| 1777580060 | 9.44° C | 55% | 957.4 hPa | - | - | - | - |
| 1777579160 | 9.44° C | 54% | 957.3 hPa | - | - | - | - |
| 1777578260 | 9.44° C | 54% | 957.3 hPa | - | - | - | - |
| 1777571956 | 11.67° C | 51% | 956.8 hPa | - | - | - | - |
| 1777570152 | 11.67° C | 49% | 956.4 hPa | - | - | - | - |
| 1777568352 | 11.67° C | 49% | 956.4 hPa | - | - | - | - |
| 1777567450 | 12.22° C | 50% | 956.4 hPa | - | - | - | - |
| 1777566550 | 11.11° C | 52% | 956.4 hPa | - | - | - | - |
| 1777564749 | 11.11° C | 52% | 956.3 hPa | - | - | - | - |
| 1777562046 | 11.11° C | 50% | 956.3 hPa | - | - | - | - |
| 1777561145 | 11.67° C | 50% | 956.2 hPa | - | - | - | - |
| 1777559345 | 11.11° C | 48% | 956.3 hPa | - | - | - | - |
| 1777557540 | 11.67° C | 50% | 956.2 hPa | - | - | - | - |
| 1777556640 | 11.67° C | 51% | 956.3 hPa | - | - | - | - |
| 1777554839 | 10.56° C | 47% | 956.4 hPa | - | - | - | - |
| 1777553939 | 10.56° C | 47% | 956.4 hPa | - | - | - | - |
| 1777552139 | 10° C | 48% | 956.4 hPa | - | - | - | - |
| 1777550339 | 10° C | 49% | 956.4 hPa | - | - | - | - |
| 1777544937 | 9.44° C | 49% | 956.2 hPa | - | - | - | - |
| 1777544037 | 10° C | 49% | 956.3 hPa | - | - | - | - |
| 1777543137 | 10° C | 49% | 956.3 hPa | - | - | - | - |
| 1777541336 | 10° C | 49% | 956.3 hPa | - | - | - | - |
* Rain since midnight (hover to see other rain measurements)
** Current wind speed in m/s (hover to see current wind gust speed)